メインページ
METAR-TAF:

METAR-TAF

空港 :

パリ=シャルル・ド・ゴール空港

パリチャールズ・ドゴール, フランス

緯度: 49-01N, 経度: 002-32E, 海抜: 118m

現時点の気象観測

当レポートは23分前の12:00(UTC)に作成
の風 7kt、北西から東/北東の間で変化する
気温 16°C
湿度 59%
気圧 1027 hPa
視程: 8000m

METAR: LFPG 211200Z 36007KT 310V060 8000 NSC 16/08 Q1027 NOSIG

時間: 14:23 (12:23 UTC)

予報

当レポートは1時間23分前の11:00(UTC)に作成
予報は21日の 12時(UTC)から 22日の 18時(UTC)まで有効
北/北東の風 5kt
視程: 8000m
確率 40% :
22日の 02時(UTC)から 22日の 04時(UTC)まで一時的に
視程: 4000m
22日の 04時(UTC)から 22日の 06時(UTC)まで徐々に
北/北東の風 15kt、最大25ktの突風を伴う
高度300ftの千切れ雲あり
高度700ftの千切れ雲あり
22日の 06時(UTC)から 22日の 09時(UTC)まで一時的に
視程: 2000m
高度200ftの曇り
霧雨
22日の 09時(UTC)から 22日の 12時(UTC)まで徐々に
北/北東の風 15kt
高度2000ftの千切れ雲あり

TAF: LFPG 211100Z 2112/2218 02005KT 8000 NSC TX18/2114Z TN08/2206Z PROB40 TEMPO 2202/2204 4000 BR BECMG 2204/2206 02015G25KT BKN003 BKN007 TEMPO 2206/2209 2000 DZ OVC002 BECMG 2209/2212 02015KT BKN020

4,000以上の空港の気象観測と天気予報(METAR報とTAF報)

利用可能な観測所は地図上に黄色い丸と赤い丸で示す。

丸の上にカーソルを重ねると観測所名を参照できる。

次にクリックすると気象観測と天気予報を参照できる。

マップの切り替え:黒色「×」印の緑ボタンをクリックして拡大、「-」印の緑ボタンをクリックして縮小、緑色の三角印をクリックして隣りの地図に切り替え


METAR-TAF: